Time;durP1;ratioP1;P1;durP2;ratioP2;P2;SDS_P1;SDS_P2;PMS_P1;PMS_P2;Temp;Humidity;BMP_temperature;BMP_pressure;BME280_temperature;BME280_humidity;BME280_pressure;Samples;Min_cycle;Max_cycle;Signal;HPM_P1;HPM_P2
2021/12/08 00:00:33;;;;;;;17.43;9.67;;;;;;;;;;4434171;32;20652;-56
2021/12/08 00:03:00;;;;;;;19.27;9.37;;;;;;;;;;4432015;32;20285;-60
2021/12/08 00:05:27;;;;;;;21.93;10.90;;;;;;;;;;4433801;32;20279;-57
2021/12/08 00:07:53;;;;;;;28.47;13.50;;;;;;;;;;4433959;32;20221;-57
2021/12/08 00:13:08;;;;;;;38.30;13.50;;;;;;;;;;4433933;32;20272;-57
2021/12/08 00:15:39;;;;;;;36.03;15.70;;;;;;;;;;4433939;32;20244;-57
2021/12/08 00:18:08;;;;;;;23.10;11.37;;;;;;;;;;4433824;32;20267;-56
2021/12/08 00:20:35;;;;;;;17.83;7.20;;;;;;;;;;4419607;32;20241;-56
2021/12/08 00:23:02;;;;;;;9.53;6.67;;;;;;;;;;4433838;32;20295;-57
2021/12/08 00:25:29;;;;;;;18.33;8.63;;;;;;;;;;4418397;32;20228;-58
2021/12/08 00:27:55;;;;;;;10.60;5.83;;;;;;;;;;4418359;32;20615;-57
2021/12/08 00:30:21;;;;;;;15.20;6.87;;;;;;;;;;4418600;32;20297;-57
2021/12/08 00:32:47;;;;;;;21.03;11.67;;;;;;;;;;4418550;32;20416;-56
2021/12/08 00:35:13;;;;;;;10.53;6.50;;;;;;;;;;4417873;32;20226;-57
2021/12/08 00:37:40;;;;;;;22.43;10.57;;;;;;;;;;4416716;32;20708;-58
2021/12/08 00:40:08;;;;;;;18.17;9.40;;;;;;;;;;4418134;32;20299;-56
2021/12/08 00:42:33;;;;;;;11.37;6.17;;;;;;;;;;4403730;32;20228;-56
2021/12/08 00:44:59;;;;;;;11.97;6.77;;;;;;;;;;4417007;32;20295;-56
2021/12/08 00:47:25;;;;;;;5.27;4.27;;;;;;;;;;4417894;32;20267;-57
2021/12/08 00:49:51;;;;;;;6.43;3.40;;;;;;;;;;4417878;32;20407;-57
2021/12/08 00:52:17;;;;;;;6.67;2.73;;;;;;;;;;4417842;32;20231;-56
2021/12/08 00:54:42;;;;;;;4.27;3.33;;;;;;;;;;4417734;32;20321;-57
2021/12/08 00:57:09;;;;;;;6.70;4.67;;;;;;;;;;4417736;32;20214;-56
2021/12/08 00:59:35;;;;;;;3.83;3.40;;;;;;;;;;4417439;32;20233;-57
2021/12/08 01:02:02;;;;;;;8.27;4.63;;;;;;;;;;4422890;32;20262;-57
2021/12/08 01:04:33;;;;;;;7.43;4.23;;;;;;;;;;4426770;32;20212;-57
2021/12/08 01:07:00;;;;;;;26.10;11.07;;;;;;;;;;4433157;32;20554;-57
2021/12/08 01:09:25;;;;;;;14.70;8.60;;;;;;;;;;4432830;32;20270;-57
2021/12/08 01:11:52;;;;;;;13.03;7.93;;;;;;;;;;4434813;32;20274;-57
2021/12/08 01:14:18;;;;;;;11.10;6.40;;;;;;;;;;4448576;32;20280;-58
2021/12/08 01:16:44;;;;;;;6.57;3.73;;;;;;;;;;4442841;32;20267;-58
2021/12/08 01:19:09;;;;;;;8.73;4.03;;;;;;;;;;4418894;32;20410;-57
2021/12/08 01:21:36;;;;;;;4.90;3.50;;;;;;;;;;4432855;32;20268;-58
2021/12/08 01:24:02;;;;;;;7.60;4.77;;;;;;;;;;4432767;32;20209;-57
2021/12/08 01:26:28;;;;;;;7.97;5.73;;;;;;;;;;4432367;32;20460;-57
2021/12/08 01:28:56;;;;;;;15.37;5.90;;;;;;;;;;4432931;32;20287;-59
2021/12/08 01:31:23;;;;;;;5.67;3.50;;;;;;;;;;4432790;32;20248;-56
2021/12/08 01:33:49;;;;;;;7.93;3.70;;;;;;;;;;4432586;32;20209;-57
2021/12/08 01:36:15;;;;;;;5.87;3.83;;;;;;;;;;4432928;32;20233;-57
2021/12/08 01:38:41;;;;;;;5.70;3.80;;;;;;;;;;4432800;32;20352;-58
2021/12/08 01:41:08;;;;;;;5.77;3.10;;;;;;;;;;4426803;32;20251;-58
2021/12/08 01:43:43;;;;;;;6.00;4.43;;;;;;;;;;4432130;32;20351;-60
2021/12/08 01:46:12;;;;;;;11.43;6.23;;;;;;;;;;4429053;32;20225;-57
2021/12/08 01:48:40;;;;;;;7.57;4.70;;;;;;;;;;4431300;32;20569;-57
2021/12/08 01:51:17;;;;;;;5.30;4.37;;;;;;;;;;4432817;32;20236;-55
2021/12/08 01:53:47;;;;;;;5.90;4.40;;;;;;;;;;4432656;32;20257;-57
2021/12/08 01:56:12;;;;;;;11.33;5.87;;;;;;;;;;4432450;32;20236;-57
2021/12/08 01:58:38;;;;;;;16.77;6.53;;;;;;;;;;4429278;32;20379;-57
2021/12/08 02:01:10;;;;;;;8.30;5.30;;;;;;;;;;4432533;32;20629;-57
2021/12/08 02:03:37;;;;;;;10.47;4.03;;;;;;;;;;4417737;32;20217;-57
2021/12/08 02:06:06;;;;;;;6.07;3.53;;;;;;;;;;4417176;32;20279;-58
2021/12/08 02:08:32;;;;;;;7.90;4.50;;;;;;;;;;4417079;32;20210;-58
2021/12/08 02:10:59;;;;;;;9.57;5.30;;;;;;;;;;4403224;32;20650;-57
2021/12/08 02:13:25;;;;;;;6.90;4.53;;;;;;;;;;4417012;32;20518;-57
2021/12/08 02:15:50;;;;;;;9.63;5.40;;;;;;;;;;4417009;32;20660;-56
2021/12/08 02:18:17;;;;;;;12.77;5.63;;;;;;;;;;4432107;32;20205;-56
2021/12/08 02:20:47;;;;;;;11.30;6.67;;;;;;;;;;4418565;32;20288;-58
2021/12/08 02:23:13;;;;;;;12.27;7.07;;;;;;;;;;4431614;32;20660;-58
2021/12/08 02:25:38;;;;;;;5.23;4.00;;;;;;;;;;4417144;32;20309;-58
2021/12/08 02:28:07;;;;;;;10.23;5.50;;;;;;;;;;4416730;32;20631;-58
2021/12/08 02:30:42;;;;;;;9.00;4.77;;;;;;;;;;4416864;32;20318;-57
2021/12/08 02:49:26;;;;;;;5.53;3.63;;;;;;;;;;4416542;32;20239;-57
2021/12/08 02:51:53;;;;;;;6.43;4.80;;;;;;;;;;4416706;32;20284;-59
2021/12/08 02:54:20;;;;;;;9.57;4.70;;;;;;;;;;4416914;32;20557;-56
2021/12/08 02:56:46;;;;;;;6.90;4.53;;;;;;;;;;4417508;32;20237;-58
2021/12/08 02:59:11;;;;;;;10.30;4.63;;;;;;;;;;4419599;32;20276;-58
2021/12/08 03:01:38;;;;;;;12.07;5.83;;;;;;;;;;4421704;32;20258;-58
2021/12/08 03:04:05;;;;;;;7.93;5.60;;;;;;;;;;4434545;32;20260;-57
2021/12/08 03:06:31;;;;;;;9.87;5.90;;;;;;;;;;4434955;32;20296;-58
2021/12/08 03:08:56;;;;;;;11.20;7.07;;;;;;;;;;4434594;32;20288;-58
2021/12/08 03:11:22;;;;;;;20.20;8.53;;;;;;;;;;4434716;32;20340;-57
2021/12/08 03:14:07;;;;;;;12.00;6.97;;;;;;;;;;4435042;32;20303;-57
2021/12/08 03:16:35;;;;;;;9.43;5.40;;;;;;;;;;4434680;32;20229;-57
2021/12/08 03:19:01;;;;;;;9.80;5.20;;;;;;;;;;4434752;32;20223;-57
2021/12/08 03:21:30;;;;;;;7.50;4.80;;;;;;;;;;4420502;32;20228;-56
2021/12/08 03:26:34;;;;;;;8.00;5.10;;;;;;;;;;4419232;32;20221;-58
2021/12/08 03:29:06;;;;;;;11.17;5.10;;;;;;;;;;4419344;32;20672;-56
2021/12/08 03:31:39;;;;;;;8.53;5.33;;;;;;;;;;4419063;32;20244;-58
2021/12/08 03:34:05;;;;;;;11.60;5.57;;;;;;;;;;4418869;32;20229;-57
2021/12/08 03:36:30;;;;;;;10.93;6.23;;;;;;;;;;4405551;32;20229;-57
2021/12/08 03:38:56;;;;;;;13.80;8.37;;;;;;;;;;4418929;32;20302;-57
2021/12/08 03:41:21;;;;;;;10.67;7.13;;;;;;;;;;4419022;32;20261;-57
2021/12/08 03:43:47;;;;;;;12.40;7.83;;;;;;;;;;4418970;32;20280;-56
2021/12/08 03:46:16;;;;;;;14.53;7.83;;;;;;;;;;4419020;32;20327;-57
2021/12/08 03:48:48;;;;;;;10.10;5.90;;;;;;;;;;4422029;32;20282;-57
2021/12/08 03:51:16;;;;;;;10.13;6.73;;;;;;;;;;4420092;32;20620;-57
2021/12/08 03:53:42;;;;;;;13.17;6.53;;;;;;;;;;4434676;32;20220;-57
2021/12/08 03:56:08;;;;;;;10.80;7.47;;;;;;;;;;4420270;32;20322;-57
2021/12/08 03:58:35;;;;;;;11.30;7.23;;;;;;;;;;4434262;32;20688;-57
2021/12/08 04:01:02;;;;;;;18.53;8.77;;;;;;;;;;4433772;32;20651;-58
2021/12/08 04:03:31;;;;;;;10.50;7.07;;;;;;;;;;4432146;32;20315;-58
2021/12/08 04:06:01;;;;;;;10.20;7.53;;;;;;;;;;4434183;32;20228;-57
2021/12/08 04:08:45;;;;;;;8.50;6.40;;;;;;;;;;4433813;32;20225;-57
2021/12/08 04:11:12;;;;;;;11.33;5.90;;;;;;;;;;4434149;32;20395;-57
2021/12/08 04:13:49;;;;;;;10.50;6.03;;;;;;;;;;4434395;32;20241;-56
2021/12/08 04:16:19;;;;;;;10.23;7.10;;;;;;;;;;4433762;32;20221;-57
2021/12/08 04:18:45;;;;;;;13.00;7.17;;;;;;;;;;4434380;32;20544;-58
2021/12/08 04:21:12;;;;;;;8.17;6.13;;;;;;;;;;4433591;32;20311;-56
2021/12/08 04:23:40;;;;;;;9.47;6.77;;;;;;;;;;4430484;32;20229;-58
2021/12/08 04:26:12;;;;;;;10.40;7.30;;;;;;;;;;4418431;32;20257;-57
2021/12/08 04:28:38;;;;;;;11.63;6.80;;;;;;;;;;4418689;32;20635;-57
2021/12/08 04:31:27;;;;;;;12.37;6.70;;;;;;;;;;4418670;32;20224;-57
2021/12/08 04:33:59;;;;;;;11.97;6.77;;;;;;;;;;4418348;32;20569;-57
2021/12/08 04:36:26;;;;;;;16.27;7.83;;;;;;;;;;4404774;32;20308;-58
2021/12/08 04:38:56;;;;;;;13.27;6.50;;;;;;;;;;4418388;32;20247;-57
2021/12/08 04:41:31;;;;;;;10.10;6.30;;;;;;;;;;4422701;32;20270;-56
2021/12/08 04:44:10;;;;;;;13.43;7.47;;;;;;;;;;4422574;32;20339;-56
2021/12/08 04:46:59;;;;;;;10.80;5.97;;;;;;;;;;4418733;32;20233;-58
2021/12/08 04:50:28;;;;;;;9.33;6.03;;;;;;;;;;4425994;32;20221;-57
2021/12/08 04:52:28;;;;;;;9.10;6.27;;;;;;;;;;4426898;32;20228;-57
2021/12/08 05:03:42;;;;;;;8.80;5.43;;;;;;;;;;4433108;32;20247;-57
2021/12/08 05:09:26;;;;;;;25.60;14.07;;;;;;;;;;4417920;32;20209;-58
2021/12/08 05:11:58;;;;;;;26.70;15.17;;;;;;;;;;4444800;32;20300;-57
2021/12/08 05:14:50;;;;;;;18.73;10.60;;;;;;;;;;4433409;32;20219;-57
2021/12/08 05:17:23;;;;;;;15.63;9.50;;;;;;;;;;4427747;32;20212;-58
2021/12/08 05:19:51;;;;;;;13.17;9.20;;;;;;;;;;4433510;32;20244;-58
2021/12/08 05:22:24;;;;;;;16.63;10.07;;;;;;;;;;4433084;32;20492;-57
2021/12/08 05:24:53;;;;;;;14.37;9.87;;;;;;;;;;4422172;32;20296;-58
2021/12/08 05:27:34;;;;;;;16.30;9.53;;;;;;;;;;4417551;32;20209;-57
2021/12/08 05:30:14;;;;;;;13.53;9.37;;;;;;;;;;4417493;32;20229;-57
2021/12/08 05:32:39;;;;;;;13.33;9.00;;;;;;;;;;4417825;32;20205;-57
2021/12/08 05:35:09;;;;;;;16.47;9.73;;;;;;;;;;4417460;32;20255;-57
2021/12/08 05:37:35;;;;;;;13.97;9.37;;;;;;;;;;4417226;32;20760;-59
2021/12/08 05:40:03;;;;;;;16.13;10.87;;;;;;;;;;4415885;32;20313;-57
2021/12/08 05:42:35;;;;;;;15.40;10.00;;;;;;;;;;4417138;32;20310;-58
2021/12/08 05:45:04;;;;;;;20.70;11.53;;;;;;;;;;4411644;32;20296;-57
2021/12/08 05:47:30;;;;;;;19.90;11.73;;;;;;;;;;4417502;32;20697;-58
2021/12/08 05:49:56;;;;;;;21.50;11.37;;;;;;;;;;4428537;32;20220;-57
2021/12/08 05:52:23;;;;;;;18.47;11.10;;;;;;;;;;4432440;32;20559;-57
2021/12/08 05:54:51;;;;;;;19.07;11.60;;;;;;;;;;4432666;32;20258;-57
2021/12/08 05:57:31;;;;;;;43.00;19.97;;;;;;;;;;4432450;32;20209;-59
2021/12/08 05:59:57;;;;;;;28.10;15.87;;;;;;;;;;4432269;32;20231;-57
2021/12/08 06:02:30;;;;;;;25.43;15.13;;;;;;;;;;4432580;32;20286;-57
2021/12/08 06:04:56;;;;;;;32.27;18.10;;;;;;;;;;4432291;32;20229;-57
2021/12/08 06:07:23;;;;;;;35.47;22.07;;;;;;;;;;4418216;32;20287;-59
2021/12/08 06:09:54;;;;;;;24.17;13.93;;;;;;;;;;4412175;32;20633;-57
2021/12/08 06:12:20;;;;;;;21.67;14.03;;;;;;;;;;4432419;32;20283;-57
2021/12/08 06:14:46;;;;;;;22.13;12.73;;;;;;;;;;4432014;32;20339;-57
2021/12/08 06:17:15;;;;;;;20.50;13.27;;;;;;;;;;4425114;32;20237;-57
2021/12/08 06:19:43;;;;;;;13.23;9.30;;;;;;;;;;4431863;32;20665;-58
2021/12/08 06:22:11;;;;;;;15.93;9.80;;;;;;;;;;4431942;32;20516;-57
2021/12/08 06:24:37;;;;;;;15.33;9.13;;;;;;;;;;4431786;32;20262;-57
2021/12/08 06:27:03;;;;;;;16.30;10.27;;;;;;;;;;4431359;32;20247;-58
2021/12/08 06:29:28;;;;;;;15.27;9.77;;;;;;;;;;4431771;32;20343;-58
2021/12/08 06:31:56;;;;;;;20.50;10.50;;;;;;;;;;4432240;32;20237;-57
2021/12/08 06:34:24;;;;;;;10.60;7.13;;;;;;;;;;4434896;32;20751;-58
2021/12/08 06:36:53;;;;;;;13.23;9.33;;;;;;;;;;4449689;32;20256;-58
2021/12/08 06:39:23;;;;;;;20.30;9.67;;;;;;;;;;4450116;32;20273;-57
2021/12/08 06:41:53;;;;;;;20.90;10.57;;;;;;;;;;4436661;32;20263;-58
2021/12/08 06:44:24;;;;;;;23.53;13.27;;;;;;;;;;4435722;32;20648;-57
2021/12/08 06:46:50;;;;;;;25.97;17.23;;;;;;;;;;4450043;32;20343;-58
2021/12/08 06:49:18;;;;;;;25.60;16.13;;;;;;;;;;4424634;32;20241;-57
2021/12/08 06:51:50;;;;;;;24.57;13.57;;;;;;;;;;4418242;32;20244;-58
2021/12/08 06:54:21;;;;;;;26.80;15.13;;;;;;;;;;4432919;32;20208;-58
2021/12/08 06:56:54;;;;;;;27.97;16.13;;;;;;;;;;4433646;32;20260;-57
2021/12/08 06:59:24;;;;;;;28.90;16.47;;;;;;;;;;4433213;32;20228;-57
2021/12/08 07:02:13;;;;;;;32.80;16.83;;;;;;;;;;4434487;32;20771;-58
2021/12/08 07:05:07;;;;;;;31.53;16.70;;;;;;;;;;4434782;32;20208;-58
2021/12/08 07:07:33;;;;;;;26.83;17.73;;;;;;;;;;4434713;32;20665;-57
2021/12/08 07:10:07;;;;;;;33.30;21.80;;;;;;;;;;4434432;32;20274;-56
2021/12/08 07:12:37;;;;;;;51.00;27.73;;;;;;;;;;4435044;32;20243;-58
2021/12/08 07:15:10;;;;;;;63.80;32.47;;;;;;;;;;4434794;32;20294;-57
2021/12/08 07:17:41;;;;;;;55.83;28.80;;;;;;;;;;4434345;32;20252;-58
2021/12/08 07:20:29;;;;;;;41.83;23.33;;;;;;;;;;4419488;32;20631;-58
2021/12/08 07:23:00;;;;;;;32.80;16.17;;;;;;;;;;4432106;32;20282;-57
2021/12/08 07:25:27;;;;;;;30.90;16.00;;;;;;;;;;4433218;32;20363;-57
2021/12/08 07:27:53;;;;;;;37.80;13.97;;;;;;;;;;4420350;32;20241;-57
2021/12/08 07:30:39;;;;;;;24.57;13.30;;;;;;;;;;4419291;32;20310;-58
2021/12/08 07:33:05;;;;;;;25.03;13.53;;;;;;;;;;4432513;32;20534;-58
2021/12/08 07:35:38;;;;;;;31.13;16.70;;;;;;;;;;4430928;32;20366;-58
2021/12/08 07:38:10;;;;;;;31.10;17.53;;;;;;;;;;4430797;32;20212;-58
2021/12/08 07:40:42;;;;;;;74.17;31.33;;;;;;;;;;4431695;32;20260;-58
2021/12/08 07:43:15;;;;;;;87.63;37.00;;;;;;;;;;4431113;32;20292;-60
2021/12/08 07:45:51;;;;;;;70.07;30.60;;;;;;;;;;4431785;32;20241;-57
2021/12/08 07:48:24;;;;;;;71.73;29.70;;;;;;;;;;4431366;32;20212;-58
2021/12/08 07:51:00;;;;;;;53.10;23.07;;;;;;;;;;4433611;32;20334;-57
2021/12/08 07:53:27;;;;;;;181.47;66.27;;;;;;;;;;4432960;32;20511;-58
2021/12/08 07:56:00;;;;;;;20.87;11.70;;;;;;;;;;4433974;32;20237;-57
2021/12/08 07:58:26;;;;;;;44.17;19.60;;;;;;;;;;4433808;32;20586;-58
2021/12/08 08:01:03;;;;;;;29.60;14.60;;;;;;;;;;4433801;32;20294;-58
2021/12/08 08:03:31;;;;;;;47.13;20.00;;;;;;;;;;4418080;32;20307;-57
2021/12/08 08:05:59;;;;;;;106.50;42.60;;;;;;;;;;4404310;32;20702;-58
2021/12/08 08:08:29;;;;;;;77.73;36.27;;;;;;;;;;4417758;32;20729;-57
2021/12/08 08:11:00;;;;;;;149.83;64.63;;;;;;;;;;4418107;32;20613;-56
2021/12/08 08:13:28;;;;;;;53.50;30.53;;;;;;;;;;4418401;32;20268;-58
2021/12/08 08:16:04;;;;;;;72.77;32.50;;;;;;;;;;4418324;32;20335;-57
2021/12/08 08:18:32;;;;;;;87.57;40.70;;;;;;;;;;4404043;32;20299;-58
2021/12/08 08:21:03;;;;;;;49.90;23.60;;;;;;;;;;4417897;32;20257;-58
2021/12/08 08:23:31;;;;;;;100.77;45.57;;;;;;;;;;4418278;32;20217;-58
2021/12/08 08:25:58;;;;;;;73.40;32.17;;;;;;;;;;4419707;32;20232;-58
2021/12/08 08:28:24;;;;;;;59.33;25.00;;;;;;;;;;4433425;32;20240;-57
2021/12/08 08:31:02;;;;;;;31.10;15.93;;;;;;;;;;4419142;32;20331;-57
2021/12/08 08:33:28;;;;;;;60.40;29.67;;;;;;;;;;4433019;32;20761;-57
2021/12/08 08:35:56;;;;;;;69.63;30.40;;;;;;;;;;4432834;32;20239;-57
2021/12/08 08:38:30;;;;;;;58.00;27.70;;;;;;;;;;4432453;32;20335;-58
2021/12/08 08:41:07;;;;;;;52.47;24.03;;;;;;;;;;4433146;32;20251;-57
2021/12/08 08:43:33;;;;;;;38.23;20.37;;;;;;;;;;4432894;32;20204;-58
2021/12/08 08:46:07;;;;;;;22.57;13.07;;;;;;;;;;4432678;32;20572;-57
2021/12/08 08:48:39;;;;;;;21.27;12.67;;;;;;;;;;4430238;32;20331;-58
2021/12/08 08:51:28;;;;;;;35.93;17.37;;;;;;;;;;4433032;32;20233;-58
2021/12/08 08:53:58;;;;;;;50.83;21.47;;;;;;;;;;4432566;32;20585;-57
2021/12/08 08:56:42;;;;;;;34.43;16.63;;;;;;;;;;4418535;32;20270;-57
2021/12/08 08:59:15;;;;;;;19.07;10.97;;;;;;;;;;4432738;32;20189;-58
2021/12/08 09:01:45;;;;;;;25.47;13.53;;;;;;;;;;4432394;32;20321;-58
2021/12/08 09:04:28;;;;;;;123.00;47.97;;;;;;;;;;4418594;32;20303;-58
2021/12/08 09:07:02;;;;;;;22.87;12.90;;;;;;;;;;4432032;32;20232;-57
2021/12/08 09:09:30;;;;;;;35.17;16.80;;;;;;;;;;4432627;32;20284;-58
2021/12/08 09:12:02;;;;;;;21.00;12.27;;;;;;;;;;4432457;32;20213;-57
2021/12/08 09:14:39;;;;;;;15.27;10.70;;;;;;;;;;4433078;32;20209;-58
2021/12/08 09:17:10;;;;;;;18.60;10.93;;;;;;;;;;4433029;32;20200;-57
2021/12/08 09:19:52;;;;;;;27.93;14.50;;;;;;;;;;4432981;32;20220;-58
2021/12/08 09:22:26;;;;;;;19.57;11.63;;;;;;;;;;4432353;32;20242;-57
2021/12/08 09:25:20;;;;;;;16.57;10.80;;;;;;;;;;4418296;32;20729;-57
2021/12/08 09:27:51;;;;;;;14.00;9.60;;;;;;;;;;4432651;32;20200;-57
2021/12/08 09:30:32;;;;;;;14.23;9.10;;;;;;;;;;4405735;32;20240;-57
2021/12/08 09:33:07;;;;;;;24.37;8.60;;;;;;;;;;4431719;32;20264;-57
2021/12/08 09:35:52;;;;;;;15.50;9.97;;;;;;;;;;4432167;32;20285;-58
2021/12/08 09:38:41;;;;;;;24.77;14.67;;;;;;;;;;4432171;32;20251;-57
2021/12/08 09:41:13;;;;;;;10.63;7.27;;;;;;;;;;4432844;32;20618;-58
2021/12/08 09:43:42;;;;;;;12.50;8.00;;;;;;;;;;4418540;32;20566;-58
2021/12/08 09:46:16;;;;;;;14.47;9.03;;;;;;;;;;4432390;32;20251;-58
2021/12/08 09:48:44;;;;;;;12.67;9.10;;;;;;;;;;4432497;32;20274;-58
2021/12/08 09:51:12;;;;;;;14.70;10.03;;;;;;;;;;4432194;32;20357;-58
2021/12/08 09:53:38;;;;;;;19.17;10.20;;;;;;;;;;4432738;32;20289;-58
2021/12/08 09:56:04;;;;;;;13.43;10.03;;;;;;;;;;4432278;32;20630;-57
2021/12/08 09:58:30;;;;;;;13.00;8.40;;;;;;;;;;4432432;32;20678;-58
2021/12/08 10:00:59;;;;;;;18.70;8.93;;;;;;;;;;4432460;32;20251;-58
2021/12/08 10:03:25;;;;;;;18.53;11.70;;;;;;;;;;4418301;32;20666;-58
2021/12/08 10:05:52;;;;;;;14.43;8.63;;;;;;;;;;4416792;32;20339;-58
2021/12/08 10:08:18;;;;;;;22.27;11.60;;;;;;;;;;4418908;32;20216;-58
2021/12/08 10:10:45;;;;;;;145.70;54.23;;;;;;;;;;4420411;32;20232;-59
2021/12/08 10:13:11;;;;;;;18.83;11.43;;;;;;;;;;4419946;32;20298;-58
2021/12/08 10:15:37;;;;;;;24.00;13.97;;;;;;;;;;4419997;32;20220;-58
2021/12/08 10:18:04;;;;;;;78.97;35.10;;;;;;;;;;4419944;32;20337;-59
2021/12/08 10:20:31;;;;;;;23.17;11.50;;;;;;;;;;4421022;32;20305;-58
2021/12/08 10:23:42;;;;;;;43.43;22.60;;;;;;;;;;4435172;32;20635;-58
2021/12/08 10:26:16;;;;;;;30.07;16.70;;;;;;;;;;4432352;32;20660;-57
2021/12/08 10:28:56;;;;;;;14.70;7.90;;;;;;;;;;4435809;32;20255;-58
2021/12/08 10:31:30;;;;;;;18.00;11.27;;;;;;;;;;4435437;32;20285;-57
2021/12/08 10:36:47;;;;;;;20.27;10.67;;;;;;;;;;4435383;32;20367;-57
2021/12/08 10:39:31;;;;;;;18.97;11.13;;;;;;;;;;4435058;32;20209;-58
2021/12/08 10:42:13;;;;;;;12.93;8.20;;;;;;;;;;4434602;32;20228;-57
2021/12/08 10:44:47;;;;;;;26.07;12.80;;;;;;;;;;4434742;32;20189;-57
2021/12/08 10:47:20;;;;;;;17.40;7.67;;;;;;;;;;4435068;32;20211;-58
2021/12/08 10:55:06;;;;;;;12.73;8.07;;;;;;;;;;4434775;32;20255;-57
2021/12/08 10:57:35;;;;;;;18.27;9.50;;;;;;;;;;4433642;32;20267;-58
2021/12/08 11:00:13;;;;;;;14.77;9.40;;;;;;;;;;4435018;32;20240;-57
2021/12/08 11:02:47;;;;;;;28.03;13.33;;;;;;;;;;4420616;32;20321;-57
2021/12/08 11:05:25;;;;;;;16.77;8.60;;;;;;;;;;4434818;32;20290;-57
2021/12/08 11:08:27;;;;;;;15.77;8.63;;;;;;;;;;4434843;32;20279;-56
2021/12/08 11:10:57;;;;;;;13.73;10.43;;;;;;;;;;4434691;32;20274;-58
2021/12/08 11:13:34;;;;;;;13.10;9.70;;;;;;;;;;4435002;32;20567;-58
2021/12/08 11:16:16;;;;;;;15.00;9.93;;;;;;;;;;4434877;32;20307;-58
2021/12/08 11:18:45;;;;;;;14.23;9.47;;;;;;;;;;4434830;32;20221;-57
2021/12/08 11:21:20;;;;;;;14.50;8.53;;;;;;;;;;4434571;32;20382;-57
2021/12/08 11:23:49;;;;;;;10.20;8.20;;;;;;;;;;4434965;32;20228;-58
2021/12/08 11:26:36;;;;;;;12.17;7.93;;;;;;;;;;4434732;32;20270;-58
2021/12/08 11:29:06;;;;;;;15.57;8.63;;;;;;;;;;4434651;32;20219;-57
2021/12/08 11:31:48;;;;;;;17.33;8.83;;;;;;;;;;4420458;32;20229;-57
2021/12/08 11:34:21;;;;;;;13.67;8.90;;;;;;;;;;4420643;32;20232;-57
2021/12/08 11:36:51;;;;;;;15.50;9.27;;;;;;;;;;4434844;32;20224;-56
2021/12/08 11:39:23;;;;;;;20.20;11.47;;;;;;;;;;4434319;32;20231;-56
2021/12/08 11:41:52;;;;;;;12.63;9.33;;;;;;;;;;4420373;32;20266;-59
2021/12/08 11:44:19;;;;;;;14.33;9.30;;;;;;;;;;4428681;32;20214;-57
2021/12/08 11:46:51;;;;;;;10.73;7.33;;;;;;;;;;4408685;32;20241;-58
2021/12/08 11:49:18;;;;;;;15.43;7.60;;;;;;;;;;4431302;32;20213;-58
2021/12/08 11:51:43;;;;;;;14.27;8.37;;;;;;;;;;4434576;32;20232;-58
2021/12/08 11:54:27;;;;;;;14.50;9.30;;;;;;;;;;4432523;32;20364;-57
2021/12/08 11:57:01;;;;;;;11.33;7.93;;;;;;;;;;4433727;32;20706;-58
2021/12/08 11:59:27;;;;;;;17.53;10.63;;;;;;;;;;4434069;32;20289;-58
2021/12/08 12:01:52;;;;;;;12.13;7.77;;;;;;;;;;4432835;32;20253;-58
2021/12/08 12:04:18;;;;;;;21.33;9.83;;;;;;;;;;4433946;32;20786;-57
2021/12/08 12:06:43;;;;;;;17.10;10.40;;;;;;;;;;4432690;32;20251;-57
2021/12/08 12:09:10;;;;;;;12.23;7.40;;;;;;;;;;4433818;32;20333;-57
2021/12/08 12:11:36;;;;;;;18.43;9.70;;;;;;;;;;4433987;32;20691;-58
2021/12/08 12:14:02;;;;;;;15.90;9.53;;;;;;;;;;4433589;32;20656;-57
2021/12/08 12:16:28;;;;;;;16.40;10.93;;;;;;;;;;4433849;32;20306;-58
2021/12/08 12:18:58;;;;;;;12.93;9.87;;;;;;;;;;4433019;32;20342;-58
2021/12/08 12:21:23;;;;;;;13.50;8.83;;;;;;;;;;4433764;32;20531;-58
2021/12/08 12:24:04;;;;;;;19.97;10.57;;;;;;;;;;4433573;32;20330;-57
2021/12/08 12:27:03;;;;;;;18.90;10.30;;;;;;;;;;4433895;32;20228;-56
2021/12/08 12:29:48;;;;;;;13.97;9.27;;;;;;;;;;4433075;32;20204;-57
2021/12/08 12:32:43;;;;;;;17.23;9.63;;;;;;;;;;4432904;32;20224;-57
2021/12/08 12:35:20;;;;;;;12.87;8.30;;;;;;;;;;4433218;32;20534;-57
2021/12/08 12:37:48;;;;;;;14.23;8.60;;;;;;;;;;4433369;32;20221;-57
2021/12/08 12:40:19;;;;;;;12.90;9.13;;;;;;;;;;4419211;32;20287;-56
2021/12/08 12:42:46;;;;;;;13.37;8.77;;;;;;;;;;4433599;32;20228;-57
2021/12/08 12:45:15;;;;;;;12.87;8.67;;;;;;;;;;4433034;32;20237;-56
2021/12/08 12:47:43;;;;;;;15.83;8.97;;;;;;;;;;4432959;32;20287;-57
2021/12/08 12:50:18;;;;;;;11.23;7.53;;;;;;;;;;4419245;32;20236;-57
2021/12/08 12:52:54;;;;;;;16.13;9.13;;;;;;;;;;4414562;32;20304;-58
2021/12/08 12:55:30;;;;;;;23.30;11.03;;;;;;;;;;4418055;32;20338;-56
2021/12/08 12:58:02;;;;;;;18.33;11.77;;;;;;;;;;4417923;32;20676;-56
2021/12/08 13:00:42;;;;;;;18.73;12.10;;;;;;;;;;4417857;32;20248;-58
2021/12/08 13:03:09;;;;;;;23.90;12.13;;;;;;;;;;4429638;32;20348;-57
2021/12/08 13:05:55;;;;;;;27.10;13.47;;;;;;;;;;4433398;32;20252;-57
2021/12/08 13:08:42;;;;;;;19.17;11.07;;;;;;;;;;4432778;32;20568;-57
2021/12/08 13:11:25;;;;;;;20.23;13.17;;;;;;;;;;4432707;32;20328;-57
2021/12/08 13:13:54;;;;;;;23.80;12.17;;;;;;;;;;4433101;32;20704;-57
2021/12/08 13:16:28;;;;;;;26.27;12.33;;;;;;;;;;4433110;32;20233;-58
2021/12/08 13:19:00;;;;;;;17.77;11.27;;;;;;;;;;4432852;32;20605;-57
2021/12/08 13:21:58;;;;;;;18.93;12.03;;;;;;;;;;4418271;32;20678;-58
2021/12/08 13:24:33;;;;;;;18.23;11.67;;;;;;;;;;4410476;32;20252;-57
2021/12/08 13:27:08;;;;;;;20.00;12.43;;;;;;;;;;4432557;32;20655;-57
2021/12/08 13:29:36;;;;;;;25.77;14.93;;;;;;;;;;4418651;32;20208;-57
2021/12/08 13:32:11;;;;;;;26.13;16.17;;;;;;;;;;4432335;32;20273;-56
2021/12/08 13:34:40;;;;;;;21.77;11.87;;;;;;;;;;4432908;32;20249;-57
2021/12/08 13:37:17;;;;;;;21.40;12.53;;;;;;;;;;4432481;32;20224;-59
2021/12/08 13:39:44;;;;;;;24.23;13.07;;;;;;;;;;4432653;32;20235;-57
2021/12/08 13:42:11;;;;;;;21.67;12.43;;;;;;;;;;4432534;32;20359;-57
2021/12/08 13:44:41;;;;;;;17.57;11.17;;;;;;;;;;4405769;32;20229;-56
2021/12/08 13:47:28;;;;;;;21.03;12.00;;;;;;;;;;4418436;32;20260;-58
2021/12/08 13:49:58;;;;;;;19.73;12.03;;;;;;;;;;4431187;32;20232;-57
2021/12/08 13:52:29;;;;;;;23.07;13.33;;;;;;;;;;4430094;32;20263;-57
2021/12/08 13:55:16;;;;;;;23.17;13.67;;;;;;;;;;4432612;32;20630;-57
2021/12/08 13:57:47;;;;;;;23.87;14.03;;;;;;;;;;4432568;32;20691;-57
2021/12/08 14:00:16;;;;;;;24.50;14.17;;;;;;;;;;4432637;32;20323;-57
2021/12/08 14:03:15;;;;;;;37.07;17.07;;;;;;;;;;4430510;32;20224;-57
2021/12/08 14:05:47;;;;;;;34.73;17.77;;;;;;;;;;4411080;32;20357;-58
2021/12/08 14:08:43;;;;;;;32.40;17.47;;;;;;;;;;4432187;32;20608;-57
2021/12/08 14:11:10;;;;;;;21.83;13.10;;;;;;;;;;4430819;32;20251;-58
2021/12/08 14:13:38;;;;;;;24.40;15.83;;;;;;;;;;4432402;32;20309;-58
2021/12/08 14:16:05;;;;;;;31.37;15.87;;;;;;;;;;4432206;32;20300;-58
2021/12/08 14:18:34;;;;;;;32.13;17.50;;;;;;;;;;4432460;32;20446;-58
2021/12/08 14:21:05;;;;;;;73.63;35.33;;;;;;;;;;4432183;32;20323;-58
2021/12/08 14:23:33;;;;;;;119.40;54.37;;;;;;;;;;4418113;32;20342;-57
2021/12/08 14:26:07;;;;;;;48.23;24.70;;;;;;;;;;4432423;32;20255;-57
2021/12/08 14:28:41;;;;;;;43.23;23.53;;;;;;;;;;4432791;32;20209;-58
2021/12/08 14:31:15;;;;;;;47.20;23.20;;;;;;;;;;4431518;32;20220;-58
2021/12/08 14:33:57;;;;;;;39.77;22.40;;;;;;;;;;4417373;32;20243;-59
2021/12/08 14:36:48;;;;;;;45.60;27.17;;;;;;;;;;4432232;32;20251;-57
2021/12/08 14:39:41;;;;;;;39.37;21.07;;;;;;;;;;4429803;32;20225;-57
2021/12/08 14:42:11;;;;;;;37.47;23.23;;;;;;;;;;4429686;32;20220;-58
2021/12/08 14:44:43;;;;;;;42.77;28.53;;;;;;;;;;4428724;32;20240;-57
2021/12/08 14:47:13;;;;;;;51.83;29.77;;;;;;;;;;4408823;32;20288;-57
2021/12/08 14:49:42;;;;;;;122.10;71.83;;;;;;;;;;4414111;32;20240;-57
2021/12/08 14:52:13;;;;;;;73.03;42.30;;;;;;;;;;4414215;32;20338;-57
2021/12/08 14:54:41;;;;;;;43.87;23.50;;;;;;;;;;4433902;32;20561;-58
2021/12/08 14:57:17;;;;;;;48.63;27.60;;;;;;;;;;4434518;32;20224;-56
2021/12/08 14:59:53;;;;;;;49.07;27.80;;;;;;;;;;4420776;32;20722;-57
2021/12/08 15:02:31;;;;;;;47.67;30.63;;;;;;;;;;4434477;32;20232;-58
2021/12/08 15:04:58;;;;;;;54.70;30.17;;;;;;;;;;4434943;32;20233;-57
2021/12/08 15:07:26;;;;;;;49.50;28.03;;;;;;;;;;4434877;32;20251;-57
2021/12/08 15:10:12;;;;;;;45.60;29.10;;;;;;;;;;4435050;32;20255;-57
2021/12/08 15:12:40;;;;;;;54.57;29.47;;;;;;;;;;4435234;32;20237;-58
2021/12/08 15:15:19;;;;;;;58.87;33.63;;;;;;;;;;4420397;32;20585;-57
2021/12/08 15:17:46;;;;;;;62.20;32.03;;;;;;;;;;4434972;32;20208;-58
2021/12/08 15:20:13;;;;;;;61.67;32.77;;;;;;;;;;4420768;32;20270;-57
2021/12/08 15:22:43;;;;;;;56.53;32.07;;;;;;;;;;4434872;32;20204;-57
2021/12/08 15:25:23;;;;;;;53.20;29.27;;;;;;;;;;4434696;32;20665;-57
2021/12/08 15:27:54;;;;;;;43.03;28.23;;;;;;;;;;4433491;32;20217;-57
2021/12/08 15:30:41;;;;;;;40.53;24.00;;;;;;;;;;4433611;32;20284;-57